createdAt,value
2022-09-17T00:12:56.843Z,8.25
2022-09-17T00:27:58.826Z,8.24
2022-09-17T00:43:01.503Z,8.12
2022-09-17T00:58:03.843Z,8.15
2022-09-17T01:13:24.632Z,7.89
2022-09-17T01:28:26.559Z,7.84
2022-09-17T01:43:36.512Z,7.72
2022-09-17T01:58:40.637Z,7.39
2022-09-17T02:14:03.410Z,7.23
2022-09-17T02:29:07.430Z,7.47
2022-09-17T02:44:35.964Z,7.54
2022-09-17T02:59:42.371Z,7.55
2022-09-17T03:14:44.425Z,7.53
2022-09-17T03:29:46.293Z,7.57
2022-09-17T03:44:48.265Z,7.55
2022-09-17T03:59:50.211Z,7.49
2022-09-17T04:14:52.202Z,7.49
2022-09-17T04:29:54.118Z,7.45
2022-09-17T04:44:56.057Z,7.44
2022-09-17T04:59:57.967Z,7.39
2022-09-17T05:14:59.893Z,7.33
2022-09-17T05:30:01.758Z,7.41
2022-09-17T05:45:03.853Z,7.38
2022-09-17T06:00:06.565Z,7.50
2022-09-17T06:15:14.730Z,7.55
2022-09-17T06:30:16.586Z,7.44
2022-09-17T06:45:18.444Z,7.34
2022-09-17T07:00:20.329Z,7.35
2022-09-17T07:15:22.308Z,7.42
2022-09-17T07:30:24.194Z,7.37
2022-09-17T07:45:26.456Z,7.39
2022-09-17T08:00:29.359Z,7.55
2022-09-17T08:15:31.214Z,7.72
2022-09-17T08:30:33.088Z,7.89
2022-09-17T08:45:35.019Z,7.98
2022-09-17T09:00:49.659Z,7.87
2022-09-17T09:15:53.616Z,7.92
2022-09-17T09:30:55.567Z,8.68
2022-09-17T09:46:23.658Z,9.11
2022-09-17T10:01:26.921Z,10.11
2022-09-17T10:16:30.681Z,9.77
2022-09-17T10:31:59.101Z,11.35
2022-09-17T10:47:06.756Z,11.17
2022-09-17T11:02:31.916Z,12.59
2022-09-17T11:17:46.731Z,10.51
2022-09-17T11:33:24.923Z,9.78
2022-09-17T11:48:35.018Z,9.19
2022-09-17T12:03:39.867Z,10.16
2022-09-17T12:18:41.681Z,11.42
2022-09-17T12:33:46.402Z,10.43
2022-09-17T12:49:08.346Z,10.31
2022-09-17T13:04:49.823Z,9.35
2022-09-17T13:19:55.988Z,7.68
2022-09-17T13:35:10.082Z,8.08
2022-09-17T13:50:12.335Z,9.76
2022-09-17T14:05:35.727Z,9.41
2022-09-17T14:20:37.653Z,9.66
2022-09-17T14:35:50.995Z,9.82
2022-09-17T14:50:53.141Z,10.07
2022-09-17T15:05:55.145Z,10.43
2022-09-17T15:20:57.041Z,10.06
2022-09-17T15:36:07.860Z,9.94
2022-09-17T15:51:33.116Z,9.92
2022-09-17T16:06:35.861Z,9.96
2022-09-17T16:21:37.761Z,10.10
2022-09-17T16:36:39.738Z,10.20
2022-09-17T16:51:41.864Z,9.71
2022-09-17T17:06:43.782Z,9.50
2022-09-17T17:21:47.277Z,9.39
2022-09-17T17:36:49.850Z,11.21
2022-09-17T17:51:53.387Z,12.83
2022-09-17T18:06:55.376Z,12.34
2022-09-17T18:21:57.292Z,9.53
2022-09-17T18:36:59.428Z,8.96
2022-09-17T18:52:01.367Z,8.12
2022-09-17T19:07:03.376Z,7.81
2022-09-17T19:22:07.827Z,7.49
2022-09-17T19:37:10.075Z,7.59
2022-09-17T19:52:11.961Z,7.55
2022-09-17T20:07:13.839Z,7.47
2022-09-17T20:22:15.764Z,7.63
2022-09-17T20:37:31.206Z,7.76
2022-09-17T20:52:39.684Z,7.84
2022-09-17T21:07:41.578Z,7.64
2022-09-17T21:22:43.463Z,7.56
2022-09-17T21:37:45.368Z,7.30
2022-09-17T21:52:47.358Z,7.06
2022-09-17T22:07:49.277Z,7.09
2022-09-17T22:22:51.296Z,7.25
2022-09-17T22:37:53.180Z,7.44
2022-09-17T22:52:56.230Z,7.51
2022-09-17T23:07:58.121Z,7.57
2022-09-17T23:23:00.032Z,7.60
2022-09-17T23:38:02.244Z,7.59
2022-09-17T23:53:04.176Z,7.57
